sensor_id;sensor_type;location;lat;lon;timestamp;temperature;humidity
20528;DHT22;23612;50.894;10.700;2023-03-14T00:02:01;9.80;99.90
20528;DHT22;23612;50.894;10.700;2023-03-14T00:04:26;9.80;99.90
20528;DHT22;23612;50.894;10.700;2023-03-14T00:06:52;9.80;99.90
20528;DHT22;23612;50.894;10.700;2023-03-14T00:09:17;9.80;99.90
20528;DHT22;23612;50.894;10.700;2023-03-14T00:11:43;9.80;99.90
20528;DHT22;23612;50.894;10.700;2023-03-14T00:14:08;9.80;99.90
20528;DHT22;23612;50.894;10.700;2023-03-14T00:16:34;9.80;99.90
20528;DHT22;23612;50.894;10.700;2023-03-14T00:19:00;9.80;99.90
20528;DHT22;23612;50.894;10.700;2023-03-14T00:21:25;9.80;99.90
20528;DHT22;23612;50.894;10.700;2023-03-14T00:23:51;9.80;99.90
20528;DHT22;23612;50.894;10.700;2023-03-14T00:26:18;9.80;99.90
20528;DHT22;23612;50.894;10.700;2023-03-14T00:28:45;9.90;99.90
20528;DHT22;23612;50.894;10.700;2023-03-14T00:31:13;9.80;99.90
20528;DHT22;23612;50.894;10.700;2023-03-14T00:33:38;9.90;99.90
20528;DHT22;23612;50.894;10.700;2023-03-14T00:36:06;9.80;99.90
20528;DHT22;23612;50.894;10.700;2023-03-14T00:38:34;9.90;99.90
20528;DHT22;23612;50.894;10.700;2023-03-14T00:41:08;9.80;99.90
20528;DHT22;23612;50.894;10.700;2023-03-14T00:43:34;9.80;99.90
20528;DHT22;23612;50.894;10.700;2023-03-14T00:46:00;9.90;99.90
20528;DHT22;23612;50.894;10.700;2023-03-14T00:48:25;9.80;99.90
20528;DHT22;23612;50.894;10.700;2023-03-14T00:50:51;9.80;99.90
20528;DHT22;23612;50.894;10.700;2023-03-14T00:53:17;9.80;99.90
20528;DHT22;23612;50.894;10.700;2023-03-14T00:55:43;9.80;99.90
20528;DHT22;23612;50.894;10.700;2023-03-14T00:58:13;9.80;99.90
20528;DHT22;23612;50.894;10.700;2023-03-14T01:00:40;9.80;99.90
20528;DHT22;23612;50.894;10.700;2023-03-14T01:03:06;9.80;99.90
20528;DHT22;23612;50.894;10.700;2023-03-14T01:05:31;9.80;99.90
20528;DHT22;23612;50.894;10.700;2023-03-14T01:07:57;9.80;99.90
20528;DHT22;23612;50.894;10.700;2023-03-14T01:10:23;9.90;99.90
20528;DHT22;23612;50.894;10.700;2023-03-14T01:12:49;9.80;99.90
20528;DHT22;23612;50.894;10.700;2023-03-14T01:15:15;9.80;99.90
20528;DHT22;23612;50.894;10.700;2023-03-14T01:17:40;9.80;99.90
20528;DHT22;23612;50.894;10.700;2023-03-14T01:20:07;9.80;99.90
20528;DHT22;23612;50.894;10.700;2023-03-14T01:22:35;9.80;99.90
20528;DHT22;23612;50.894;10.700;2023-03-14T01:25:00;9.80;99.90
20528;DHT22;23612;50.894;10.700;2023-03-14T01:27:26;9.80;99.90
20528;DHT22;23612;50.894;10.700;2023-03-14T01:29:51;9.80;99.90
20528;DHT22;23612;50.894;10.700;2023-03-14T01:32:17;9.70;99.90
20528;DHT22;23612;50.894;10.700;2023-03-14T01:34:42;9.70;99.90
20528;DHT22;23612;50.894;10.700;2023-03-14T01:37:08;9.60;99.90
20528;DHT22;23612;50.894;10.700;2023-03-14T01:39:33;9.60;99.90
20528;DHT22;23612;50.894;10.700;2023-03-14T01:42:00;9.50;99.90
20528;DHT22;23612;50.894;10.700;2023-03-14T01:44:26;9.50;99.90
20528;DHT22;23612;50.894;10.700;2023-03-14T01:46:51;9.50;99.90
20528;DHT22;23612;50.894;10.700;2023-03-14T01:49:30;9.50;99.90
20528;DHT22;23612;50.894;10.700;2023-03-14T01:51:59;9.50;99.90
20528;DHT22;23612;50.894;10.700;2023-03-14T01:54:30;9.50;99.90
20528;DHT22;23612;50.894;10.700;2023-03-14T01:57:14;9.40;99.90
20528;DHT22;23612;50.894;10.700;2023-03-14T01:59:46;9.50;99.90
20528;DHT22;23612;50.894;10.700;2023-03-14T02:02:13;9.50;99.90
20528;DHT22;23612;50.894;10.700;2023-03-14T02:04:41;9.50;99.90
20528;DHT22;23612;50.894;10.700;2023-03-14T02:07:16;9.50;99.90
20528;DHT22;23612;50.894;10.700;2023-03-14T02:09:43;9.40;99.90
20528;DHT22;23612;50.894;10.700;2023-03-14T02:12:12;9.40;99.90
20528;DHT22;23612;50.894;10.700;2023-03-14T02:14:39;9.40;99.90
20528;DHT22;23612;50.894;10.700;2023-03-14T02:17:06;9.30;99.90
20528;DHT22;23612;50.894;10.700;2023-03-14T02:22:26;9.40;99.90
20528;DHT22;23612;50.894;10.700;2023-03-14T02:27:43;9.50;99.90
20528;DHT22;23612;50.894;10.700;2023-03-14T02:30:16;9.50;99.90
20528;DHT22;23612;50.894;10.700;2023-03-14T02:32:45;9.50;99.90
20528;DHT22;23612;50.894;10.700;2023-03-14T02:35:13;9.50;99.90
20528;DHT22;23612;50.894;10.700;2023-03-14T02:37:53;9.40;99.90
20528;DHT22;23612;50.894;10.700;2023-03-14T02:40:21;9.30;99.90
20528;DHT22;23612;50.894;10.700;2023-03-14T02:42:46;9.30;99.90
20528;DHT22;23612;50.894;10.700;2023-03-14T02:47:43;9.20;99.90
20528;DHT22;23612;50.894;10.700;2023-03-14T02:50:16;9.20;99.90
20528;DHT22;23612;50.894;10.700;2023-03-14T02:52:43;9.20;99.90
20528;DHT22;23612;50.894;10.700;2023-03-14T02:55:08;9.20;99.90
20528;DHT22;23612;50.894;10.700;2023-03-14T02:57:34;9.20;99.90
20528;DHT22;23612;50.894;10.700;2023-03-14T03:00:00;9.20;99.90
20528;DHT22;23612;50.894;10.700;2023-03-14T03:02:27;9.20;99.90
20528;DHT22;23612;50.894;10.700;2023-03-14T03:04:53;9.20;99.90
20528;DHT22;23612;50.894;10.700;2023-03-14T03:07:18;9.20;99.90
20528;DHT22;23612;50.894;10.700;2023-03-14T03:09:44;9.20;99.90
20528;DHT22;23612;50.894;10.700;2023-03-14T03:12:10;9.20;99.90
20528;DHT22;23612;50.894;10.700;2023-03-14T03:14:35;9.20;99.90
20528;DHT22;23612;50.894;10.700;2023-03-14T03:17:03;9.20;99.90
20528;DHT22;23612;50.894;10.700;2023-03-14T03:19:29;9.20;99.90
20528;DHT22;23612;50.894;10.700;2023-03-14T03:21:54;9.20;99.90
20528;DHT22;23612;50.894;10.700;2023-03-14T03:24:20;9.20;99.90
20528;DHT22;23612;50.894;10.700;2023-03-14T03:26:45;9.20;99.90
20528;DHT22;23612;50.894;10.700;2023-03-14T03:29:11;9.20;99.90
20528;DHT22;23612;50.894;10.700;2023-03-14T03:31:37;9.20;99.90
20528;DHT22;23612;50.894;10.700;2023-03-14T03:34:03;9.10;99.90
20528;DHT22;23612;50.894;10.700;2023-03-14T03:36:28;9.10;99.90
20528;DHT22;23612;50.894;10.700;2023-03-14T03:38:54;9.10;99.90
20528;DHT22;23612;50.894;10.700;2023-03-14T03:41:19;9.10;99.90
20528;DHT22;23612;50.894;10.700;2023-03-14T03:43:45;9.10;99.90
20528;DHT22;23612;50.894;10.700;2023-03-14T03:46:10;9.10;99.90
20528;DHT22;23612;50.894;10.700;2023-03-14T03:48:36;9.10;99.90
20528;DHT22;23612;50.894;10.700;2023-03-14T03:51:02;9.00;99.90
20528;DHT22;23612;50.894;10.700;2023-03-14T03:53:27;9.10;99.90
20528;DHT22;23612;50.894;10.700;2023-03-14T03:55:53;9.10;99.90
20528;DHT22;23612;50.894;10.700;2023-03-14T03:58:19;9.10;99.90
20528;DHT22;23612;50.894;10.700;2023-03-14T04:00:44;9.20;99.90
20528;DHT22;23612;50.894;10.700;2023-03-14T04:03:09;9.20;99.90
20528;DHT22;23612;50.894;10.700;2023-03-14T04:05:35;9.20;99.90
20528;DHT22;23612;50.894;10.700;2023-03-14T04:08:01;9.20;99.90
20528;DHT22;23612;50.894;10.700;2023-03-14T04:10:27;9.20;99.90
20528;DHT22;23612;50.894;10.700;2023-03-14T04:12:53;9.20;99.90
20528;DHT22;23612;50.894;10.700;2023-03-14T04:15:18;9.30;99.90
20528;DHT22;23612;50.894;10.700;2023-03-14T04:17:44;9.20;99.90
20528;DHT22;23612;50.894;10.700;2023-03-14T04:20:10;9.20;99.90
20528;DHT22;23612;50.894;10.700;2023-03-14T04:22:39;9.30;99.90
20528;DHT22;23612;50.894;10.700;2023-03-14T04:25:06;9.30;99.90
20528;DHT22;23612;50.894;10.700;2023-03-14T04:27:31;9.30;99.90
20528;DHT22;23612;50.894;10.700;2023-03-14T04:29:57;9.30;99.90
20528;DHT22;23612;50.894;10.700;2023-03-14T04:32:22;9.30;99.90
20528;DHT22;23612;50.894;10.700;2023-03-14T04:34:48;9.20;99.90
20528;DHT22;23612;50.894;10.700;2023-03-14T04:37:13;9.20;99.90
20528;DHT22;23612;50.894;10.700;2023-03-14T04:39:39;9.10;99.90
20528;DHT22;23612;50.894;10.700;2023-03-14T04:42:04;9.10;99.90
20528;DHT22;23612;50.894;10.700;2023-03-14T04:44:31;9.10;99.90
20528;DHT22;23612;50.894;10.700;2023-03-14T04:46:56;9.20;99.90
20528;DHT22;23612;50.894;10.700;2023-03-14T04:49:22;9.30;99.90
20528;DHT22;23612;50.894;10.700;2023-03-14T04:51:47;9.30;99.90
20528;DHT22;23612;50.894;10.700;2023-03-14T04:54:13;9.30;99.90
20528;DHT22;23612;50.894;10.700;2023-03-14T04:56:38;9.30;99.90
20528;DHT22;23612;50.894;10.700;2023-03-14T04:59:04;9.30;99.90
20528;DHT22;23612;50.894;10.700;2023-03-14T05:01:30;9.30;99.90
20528;DHT22;23612;50.894;10.700;2023-03-14T05:03:55;9.30;99.90
20528;DHT22;23612;50.894;10.700;2023-03-14T05:06:21;9.30;99.90
20528;DHT22;23612;50.894;10.700;2023-03-14T05:08:46;9.30;99.90
20528;DHT22;23612;50.894;10.700;2023-03-14T05:11:12;9.30;99.90
20528;DHT22;23612;50.894;10.700;2023-03-14T05:13:38;9.30;99.90
20528;DHT22;23612;50.894;10.700;2023-03-14T05:16:08;9.30;99.90
20528;DHT22;23612;50.894;10.700;2023-03-14T05:18:35;9.20;99.90
20528;DHT22;23612;50.894;10.700;2023-03-14T05:21:01;9.20;99.90
20528;DHT22;23612;50.894;10.700;2023-03-14T05:23:26;9.20;99.90
20528;DHT22;23612;50.894;10.700;2023-03-14T05:25:52;9.20;99.90
20528;DHT22;23612;50.894;10.700;2023-03-14T05:28:18;9.20;99.90
20528;DHT22;23612;50.894;10.700;2023-03-14T05:30:43;9.20;99.90
20528;DHT22;23612;50.894;10.700;2023-03-14T05:33:08;9.20;99.90
20528;DHT22;23612;50.894;10.700;2023-03-14T05:35:34;9.20;99.90
20528;DHT22;23612;50.894;10.700;2023-03-14T05:37:59;9.20;99.90
20528;DHT22;23612;50.894;10.700;2023-03-14T05:40:25;9.20;99.90
20528;DHT22;23612;50.894;10.700;2023-03-14T05:42:50;9.30;99.90
20528;DHT22;23612;50.894;10.700;2023-03-14T05:45:17;9.30;99.90
20528;DHT22;23612;50.894;10.700;2023-03-14T05:47:42;9.40;99.90
20528;DHT22;23612;50.894;10.700;2023-03-14T05:50:08;9.40;99.90
20528;DHT22;23612;50.894;10.700;2023-03-14T05:52:34;9.40;99.90
20528;DHT22;23612;50.894;10.700;2023-03-14T05:55:00;9.50;99.90
20528;DHT22;23612;50.894;10.700;2023-03-14T05:57:25;9.50;99.90
20528;DHT22;23612;50.894;10.700;2023-03-14T05:59:51;9.50;99.90
20528;DHT22;23612;50.894;10.700;2023-03-14T06:02:16;9.50;99.90
20528;DHT22;23612;50.894;10.700;2023-03-14T06:04:42;9.50;99.90
20528;DHT22;23612;50.894;10.700;2023-03-14T06:07:07;9.50;99.90
20528;DHT22;23612;50.894;10.700;2023-03-14T06:09:33;9.50;99.90
20528;DHT22;23612;50.894;10.700;2023-03-14T06:11:58;9.50;99.90
20528;DHT22;23612;50.894;10.700;2023-03-14T06:14:24;9.40;99.90
20528;DHT22;23612;50.894;10.700;2023-03-14T06:16:49;9.40;99.90
20528;DHT22;23612;50.894;10.700;2023-03-14T06:19:15;9.50;99.90
20528;DHT22;23612;50.894;10.700;2023-03-14T06:21:41;9.50;99.90
20528;DHT22;23612;50.894;10.700;2023-03-14T06:24:07;9.40;99.90
20528;DHT22;23612;50.894;10.700;2023-03-14T06:26:32;9.50;99.90
20528;DHT22;23612;50.894;10.700;2023-03-14T06:28:58;9.40;99.90
20528;DHT22;23612;50.894;10.700;2023-03-14T06:31:31;9.40;99.90
20528;DHT22;23612;50.894;10.700;2023-03-14T06:33:56;9.40;99.90
20528;DHT22;23612;50.894;10.700;2023-03-14T06:36:22;9.50;99.90
20528;DHT22;23612;50.894;10.700;2023-03-14T06:38:47;9.40;99.90
20528;DHT22;23612;50.894;10.700;2023-03-14T06:41:13;9.50;99.90
20528;DHT22;23612;50.894;10.700;2023-03-14T06:43:38;9.50;99.90
20528;DHT22;23612;50.894;10.700;2023-03-14T06:46:04;9.50;99.90
20528;DHT22;23612;50.894;10.700;2023-03-14T06:48:30;9.50;99.90
20528;DHT22;23612;50.894;10.700;2023-03-14T06:50:55;9.50;99.90
20528;DHT22;23612;50.894;10.700;2023-03-14T06:53:21;9.60;99.90
20528;DHT22;23612;50.894;10.700;2023-03-14T06:55:46;9.50;99.90
20528;DHT22;23612;50.894;10.700;2023-03-14T06:58:12;9.50;99.90
20528;DHT22;23612;50.894;10.700;2023-03-14T07:00:38;9.50;99.90
20528;DHT22;23612;50.894;10.700;2023-03-14T07:03:03;9.50;99.90
20528;DHT22;23612;50.894;10.700;2023-03-14T07:05:29;9.50;99.90
20528;DHT22;23612;50.894;10.700;2023-03-14T07:07:54;9.60;99.90
20528;DHT22;23612;50.894;10.700;2023-03-14T07:10:20;9.50;99.90
20528;DHT22;23612;50.894;10.700;2023-03-14T07:12:45;9.50;99.90
20528;DHT22;23612;50.894;10.700;2023-03-14T07:15:11;9.60;99.90
20528;DHT22;23612;50.894;10.700;2023-03-14T07:17:37;9.60;99.90
20528;DHT22;23612;50.894;10.700;2023-03-14T07:20:03;9.60;99.90
20528;DHT22;23612;50.894;10.700;2023-03-14T07:22:32;9.70;99.90
20528;DHT22;23612;50.894;10.700;2023-03-14T07:24:58;9.60;99.90
20528;DHT22;23612;50.894;10.700;2023-03-14T07:27:24;9.60;99.90
20528;DHT22;23612;50.894;10.700;2023-03-14T07:29:49;9.60;99.90
20528;DHT22;23612;50.894;10.700;2023-03-14T07:32:15;9.50;99.90
20528;DHT22;23612;50.894;10.700;2023-03-14T07:34:41;9.50;99.90
20528;DHT22;23612;50.894;10.700;2023-03-14T07:37:07;9.50;99.90
20528;DHT22;23612;50.894;10.700;2023-03-14T07:39:32;9.50;99.90
20528;DHT22;23612;50.894;10.700;2023-03-14T07:41:58;9.60;99.90
20528;DHT22;23612;50.894;10.700;2023-03-14T07:44:23;9.60;99.90
20528;DHT22;23612;50.894;10.700;2023-03-14T07:46:49;9.60;99.90
20528;DHT22;23612;50.894;10.700;2023-03-14T07:49:14;9.70;99.90
20528;DHT22;23612;50.894;10.700;2023-03-14T07:51:40;9.70;99.90
20528;DHT22;23612;50.894;10.700;2023-03-14T07:54:05;9.80;99.90
20528;DHT22;23612;50.894;10.700;2023-03-14T07:56:31;9.80;99.90
20528;DHT22;23612;50.894;10.700;2023-03-14T07:58:57;9.80;99.90
20528;DHT22;23612;50.894;10.700;2023-03-14T08:01:22;9.80;99.90
20528;DHT22;23612;50.894;10.700;2023-03-14T08:03:48;9.80;99.90
20528;DHT22;23612;50.894;10.700;2023-03-14T08:06:13;9.80;99.90
20528;DHT22;23612;50.894;10.700;2023-03-14T08:08:39;9.90;99.90
20528;DHT22;23612;50.894;10.700;2023-03-14T08:11:06;10.00;99.90
20528;DHT22;23612;50.894;10.700;2023-03-14T08:13:34;10.10;99.90
20528;DHT22;23612;50.894;10.700;2023-03-14T08:15:59;10.10;99.90
20528;DHT22;23612;50.894;10.700;2023-03-14T08:18:25;10.20;99.90
20528;DHT22;23612;50.894;10.700;2023-03-14T08:20:50;10.30;99.90
20528;DHT22;23612;50.894;10.700;2023-03-14T08:23:16;10.30;99.90
20528;DHT22;23612;50.894;10.700;2023-03-14T08:25:41;10.30;99.90
20528;DHT22;23612;50.894;10.700;2023-03-14T08:28:07;10.30;99.90
20528;DHT22;23612;50.894;10.700;2023-03-14T08:30:32;10.20;99.90
20528;DHT22;23612;50.894;10.700;2023-03-14T08:32:58;10.30;99.90
20528;DHT22;23612;50.894;10.700;2023-03-14T08:35:24;10.20;99.90
20528;DHT22;23612;50.894;10.700;2023-03-14T08:37:49;10.20;99.90
20528;DHT22;23612;50.894;10.700;2023-03-14T08:40:15;10.30;99.90
20528;DHT22;23612;50.894;10.700;2023-03-14T08:42:42;10.20;99.90
20528;DHT22;23612;50.894;10.700;2023-03-14T08:45:08;10.30;99.90
20528;DHT22;23612;50.894;10.700;2023-03-14T08:47:35;10.10;99.90
20528;DHT22;23612;50.894;10.700;2023-03-14T08:50:01;10.10;99.90
20528;DHT22;23612;50.894;10.700;2023-03-14T08:52:27;10.10;99.90
20528;DHT22;23612;50.894;10.700;2023-03-14T08:54:52;10.10;99.90
20528;DHT22;23612;50.894;10.700;2023-03-14T08:57:18;10.20;99.90
20528;DHT22;23612;50.894;10.700;2023-03-14T08:59:43;10.30;99.90
20528;DHT22;23612;50.894;10.700;2023-03-14T09:02:12;10.30;99.90
20528;DHT22;23612;50.894;10.700;2023-03-14T09:04:38;10.30;99.90
20528;DHT22;23612;50.894;10.700;2023-03-14T09:07:04;10.50;99.90
20528;DHT22;23612;50.894;10.700;2023-03-14T09:09:30;10.60;99.90
20528;DHT22;23612;50.894;10.700;2023-03-14T09:11:56;10.60;99.90
20528;DHT22;23612;50.894;10.700;2023-03-14T09:14:22;10.60;99.90
20528;DHT22;23612;50.894;10.700;2023-03-14T09:16:48;10.70;99.90
20528;DHT22;23612;50.894;10.700;2023-03-14T09:19:13;10.80;99.90
20528;DHT22;23612;50.894;10.700;2023-03-14T09:21:39;10.80;99.90
20528;DHT22;23612;50.894;10.700;2023-03-14T09:24:05;10.70;99.90
20528;DHT22;23612;50.894;10.700;2023-03-14T09:26:31;10.70;99.90
20528;DHT22;23612;50.894;10.700;2023-03-14T09:28:56;10.70;99.90
20528;DHT22;23612;50.894;10.700;2023-03-14T09:31:22;10.70;99.90
20528;DHT22;23612;50.894;10.700;2023-03-14T09:33:47;10.70;99.90
20528;DHT22;23612;50.894;10.700;2023-03-14T09:36:13;10.60;99.90
20528;DHT22;23612;50.894;10.700;2023-03-14T09:38:39;10.50;99.90
20528;DHT22;23612;50.894;10.700;2023-03-14T09:41:17;10.50;99.90
20528;DHT22;23612;50.894;10.700;2023-03-14T09:43:45;10.60;99.90
20528;DHT22;23612;50.894;10.700;2023-03-14T09:46:12;10.60;99.90
20528;DHT22;23612;50.894;10.700;2023-03-14T09:48:38;10.60;99.90
20528;DHT22;23612;50.894;10.700;2023-03-14T09:51:10;10.70;99.90
20528;DHT22;23612;50.894;10.700;2023-03-14T09:53:42;10.80;99.90
20528;DHT22;23612;50.894;10.700;2023-03-14T09:56:17;10.90;99.90
20528;DHT22;23612;50.894;10.700;2023-03-14T09:58:48;11.10;99.90
20528;DHT22;23612;50.894;10.700;2023-03-14T10:01:16;11.50;99.90
20528;DHT22;23612;50.894;10.700;2023-03-14T10:03:45;11.90;99.90
20528;DHT22;23612;50.894;10.700;2023-03-14T10:06:12;12.40;99.90
20528;DHT22;23612;50.894;10.700;2023-03-14T10:08:40;12.80;99.90
20528;DHT22;23612;50.894;10.700;2023-03-14T10:11:06;13.20;99.90
20528;DHT22;23612;50.894;10.700;2023-03-14T10:13:32;13.10;99.90
20528;DHT22;23612;50.894;10.700;2023-03-14T10:16:03;12.80;99.90
20528;DHT22;23612;50.894;10.700;2023-03-14T10:18:32;12.60;99.90
20528;DHT22;23612;50.894;10.700;2023-03-14T10:23:37;12.40;99.90
20528;DHT22;23612;50.894;10.700;2023-03-14T10:26:12;12.10;99.90
20528;DHT22;23612;50.894;10.700;2023-03-14T10:28:51;12.00;99.90
20528;DHT22;23612;50.894;10.700;2023-03-14T10:31:16;11.70;99.90
20528;DHT22;23612;50.894;10.700;2023-03-14T10:33:42;11.70;99.90
20528;DHT22;23612;50.894;10.700;2023-03-14T10:36:24;11.90;99.90
20528;DHT22;23612;50.894;10.700;2023-03-14T10:41:47;12.20;99.90
20528;DHT22;23612;50.894;10.700;2023-03-14T10:44:21;12.00;99.90
20528;DHT22;23612;50.894;10.700;2023-03-14T10:46:57;11.90;99.90
20528;DHT22;23612;50.894;10.700;2023-03-14T10:49:33;12.20;99.90
20528;DHT22;23612;50.894;10.700;2023-03-14T10:54:38;12.30;99.90
20528;DHT22;23612;50.894;10.700;2023-03-14T10:57:04;12.00;99.90
20528;DHT22;23612;50.894;10.700;2023-03-14T10:59:36;11.80;99.90
20528;DHT22;23612;50.894;10.700;2023-03-14T11:02:22;11.60;99.90
20528;DHT22;23612;50.894;10.700;2023-03-14T11:07:42;11.90;99.90
20528;DHT22;23612;50.894;10.700;2023-03-14T11:13:04;14.20;99.90
20528;DHT22;23612;50.894;10.700;2023-03-14T11:18:19;16.20;99.90
20528;DHT22;23612;50.894;10.700;2023-03-14T11:21:29;16.40;99.90
20528;DHT22;23612;50.894;10.700;2023-03-14T11:23:47;16.50;99.90
20528;DHT22;23612;50.894;10.700;2023-03-14T11:26:35;16.60;99.90
20528;DHT22;23612;50.894;10.700;2023-03-14T11:31:40;14.60;99.90
20528;DHT22;23612;50.894;10.700;2023-03-14T11:34:35;14.60;99.90
20528;DHT22;23612;50.894;10.700;2023-03-14T11:40:14;13.90;99.90
20528;DHT22;23612;50.894;10.700;2023-03-14T11:42:44;13.50;99.90
20528;DHT22;23612;50.894;10.700;2023-03-14T11:45:17;13.30;99.90
20528;DHT22;23612;50.894;10.700;2023-03-14T11:47:45;13.10;99.90
20528;DHT22;23612;50.894;10.700;2023-03-14T11:50:23;13.10;99.90
20528;DHT22;23612;50.894;10.700;2023-03-14T11:53:02;13.00;99.90
20528;DHT22;23612;50.894;10.700;2023-03-14T11:55:35;13.00;99.90
20528;DHT22;23612;50.894;10.700;2023-03-14T11:58:17;12.90;99.90
20528;DHT22;23612;50.894;10.700;2023-03-14T12:00:47;12.80;99.90
20528;DHT22;23612;50.894;10.700;2023-03-14T12:06:37;12.90;99.90
20528;DHT22;23612;50.894;10.700;2023-03-14T12:09:06;13.20;99.90
20528;DHT22;23612;50.894;10.700;2023-03-14T12:11:38;13.80;99.90
20528;DHT22;23612;50.894;10.700;2023-03-14T12:14:18;14.90;99.90
20528;DHT22;23612;50.894;10.700;2023-03-14T12:16:46;15.60;99.90
20528;DHT22;23612;50.894;10.700;2023-03-14T12:19:39;16.00;99.90
20528;DHT22;23612;50.894;10.700;2023-03-14T12:24:38;14.80;99.90
20528;DHT22;23612;50.894;10.700;2023-03-14T12:27:05;14.30;99.90
20528;DHT22;23612;50.894;10.700;2023-03-14T12:29:32;14.00;99.90
20528;DHT22;23612;50.894;10.700;2023-03-14T12:34:31;13.60;99.90
20528;DHT22;23612;50.894;10.700;2023-03-14T12:37:26;13.60;99.90
20528;DHT22;23612;50.894;10.700;2023-03-14T12:42:59;13.60;99.90
20528;DHT22;23612;50.894;10.700;2023-03-14T12:48:09;13.60;99.90
20528;DHT22;23612;50.894;10.700;2023-03-14T12:50:39;13.70;99.90
20528;DHT22;23612;50.894;10.700;2023-03-14T12:53:37;13.80;99.90
20528;DHT22;23612;50.894;10.700;2023-03-14T12:58:54;13.10;99.90
20528;DHT22;23612;50.894;10.700;2023-03-14T13:01:24;12.60;99.90
20528;DHT22;23612;50.894;10.700;2023-03-14T13:03:56;12.40;99.90
20528;DHT22;23612;50.894;10.700;2023-03-14T13:07:01;11.90;99.90
20528;DHT22;23612;50.894;10.700;2023-03-14T13:11:53;11.60;99.90
20528;DHT22;23612;50.894;10.700;2023-03-14T13:14:19;11.50;99.90
20528;DHT22;23612;50.894;10.700;2023-03-14T13:16:46;11.50;99.90
20528;DHT22;23612;50.894;10.700;2023-03-14T13:19:26;11.50;99.90
20528;DHT22;23612;50.894;10.700;2023-03-14T13:22:21;11.40;99.90
20528;DHT22;23612;50.894;10.700;2023-03-14T13:24:47;11.30;99.90
20528;DHT22;23612;50.894;10.700;2023-03-14T13:27:20;11.20;99.90
20528;DHT22;23612;50.894;10.700;2023-03-14T13:29:48;11.10;99.90
20528;DHT22;23612;50.894;10.700;2023-03-14T13:32:20;10.90;99.90
20528;DHT22;23612;50.894;10.700;2023-03-14T13:34:46;10.80;99.90
20528;DHT22;23612;50.894;10.700;2023-03-14T13:37:19;10.70;99.90
20528;DHT22;23612;50.894;10.700;2023-03-14T13:39:50;10.70;99.90
20528;DHT22;23612;50.894;10.700;2023-03-14T13:42:17;10.50;99.90
20528;DHT22;23612;50.894;10.700;2023-03-14T13:44:43;10.40;99.90
20528;DHT22;23612;50.894;10.700;2023-03-14T13:47:15;10.40;99.90
20528;DHT22;23612;50.894;10.700;2023-03-14T13:49:41;10.30;99.90
20528;DHT22;23612;50.894;10.700;2023-03-14T13:52:23;10.30;99.90
20528;DHT22;23612;50.894;10.700;2023-03-14T13:54:53;10.20;99.90
20528;DHT22;23612;50.894;10.700;2023-03-14T13:57:19;10.20;99.90
20528;DHT22;23612;50.894;10.700;2023-03-14T13:59:59;10.20;99.90
20528;DHT22;23612;50.894;10.700;2023-03-14T14:02:25;10.10;99.90
20528;DHT22;23612;50.894;10.700;2023-03-14T14:04:52;10.10;99.90
20528;DHT22;23612;50.894;10.700;2023-03-14T14:07:18;10.00;99.90
20528;DHT22;23612;50.894;10.700;2023-03-14T14:09:50;9.90;99.90
20528;DHT22;23612;50.894;10.700;2023-03-14T14:12:26;9.80;99.90
20528;DHT22;23612;50.894;10.700;2023-03-14T14:15:10;9.50;99.90
20528;DHT22;23612;50.894;10.700;2023-03-14T14:17:41;8.40;99.90
20528;DHT22;23612;50.894;10.700;2023-03-14T14:23:02;7.30;99.90
20528;DHT22;23612;50.894;10.700;2023-03-14T14:25:31;7.20;99.90
20528;DHT22;23612;50.894;10.700;2023-03-14T14:27:57;7.20;99.90
20528;DHT22;23612;50.894;10.700;2023-03-14T14:30:33;7.10;99.90
20528;DHT22;23612;50.894;10.700;2023-03-14T14:33:19;7.10;99.90
20528;DHT22;23612;50.894;10.700;2023-03-14T14:35:57;7.20;99.90
20528;DHT22;23612;50.894;10.700;2023-03-14T14:38:24;7.30;99.90
20528;DHT22;23612;50.894;10.700;2023-03-14T14:40:52;7.30;99.90
20528;DHT22;23612;50.894;10.700;2023-03-14T14:43:27;7.20;99.90
20528;DHT22;23612;50.894;10.700;2023-03-14T14:45:54;7.10;99.90
20528;DHT22;23612;50.894;10.700;2023-03-14T14:48:26;7.00;99.90
20528;DHT22;23612;50.894;10.700;2023-03-14T14:51:02;6.80;99.90
20528;DHT22;23612;50.894;10.700;2023-03-14T14:53:39;6.50;99.90
20528;DHT22;23612;50.894;10.700;2023-03-14T14:56:21;6.30;99.90
20528;DHT22;23612;50.894;10.700;2023-03-14T14:58:50;5.90;99.90
20528;DHT22;23612;50.894;10.700;2023-03-14T15:01:23;5.70;99.90
20528;DHT22;23612;50.894;10.700;2023-03-14T15:03:53;5.40;99.90
20528;DHT22;23612;50.894;10.700;2023-03-14T15:06:20;5.30;99.90
20528;DHT22;23612;50.894;10.700;2023-03-14T15:08:47;5.10;99.90
20528;DHT22;23612;50.894;10.700;2023-03-14T15:11:19;5.20;99.90
20528;DHT22;23612;50.894;10.700;2023-03-14T15:13:45;5.20;99.90
20528;DHT22;23612;50.894;10.700;2023-03-14T15:16:11;5.20;99.90
20528;DHT22;23612;50.894;10.700;2023-03-14T15:18:37;5.20;99.90
20528;DHT22;23612;50.894;10.700;2023-03-14T15:21:03;5.20;99.90
20528;DHT22;23612;50.894;10.700;2023-03-14T15:23:29;5.20;99.90
20528;DHT22;23612;50.894;10.700;2023-03-14T15:25:54;5.10;99.90
20528;DHT22;23612;50.894;10.700;2023-03-14T15:28:25;4.90;99.90
20528;DHT22;23612;50.894;10.700;2023-03-14T15:30:53;4.70;99.90
20528;DHT22;23612;50.894;10.700;2023-03-14T15:33:20;4.60;99.90
20528;DHT22;23612;50.894;10.700;2023-03-14T15:35:46;4.60;99.90
20528;DHT22;23612;50.894;10.700;2023-03-14T15:38:14;4.50;99.90
20528;DHT22;23612;50.894;10.700;2023-03-14T15:40:40;4.40;99.90
20528;DHT22;23612;50.894;10.700;2023-03-14T15:43:07;4.30;99.90
20528;DHT22;23612;50.894;10.700;2023-03-14T15:45:32;4.20;99.90
20528;DHT22;23612;50.894;10.700;2023-03-14T15:47:58;4.10;99.90
20528;DHT22;23612;50.894;10.700;2023-03-14T15:50:23;4.10;99.90
20528;DHT22;23612;50.894;10.700;2023-03-14T15:52:50;4.10;99.90
20528;DHT22;23612;50.894;10.700;2023-03-14T15:55:16;4.00;99.90
20528;DHT22;23612;50.894;10.700;2023-03-14T15:57:43;4.00;99.90
20528;DHT22;23612;50.894;10.700;2023-03-14T16:00:12;3.90;99.90
20528;DHT22;23612;50.894;10.700;2023-03-14T16:02:40;3.90;99.90
20528;DHT22;23612;50.894;10.700;2023-03-14T16:05:10;3.90;99.90
20528;DHT22;23612;50.894;10.700;2023-03-14T16:07:36;4.00;99.90
20528;DHT22;23612;50.894;10.700;2023-03-14T16:10:02;4.10;99.90
20528;DHT22;23612;50.894;10.700;2023-03-14T16:12:28;4.10;99.90
20528;DHT22;23612;50.894;10.700;2023-03-14T16:14:54;4.10;99.90
20528;DHT22;23612;50.894;10.700;2023-03-14T16:17:19;4.10;99.90
20528;DHT22;23612;50.894;10.700;2023-03-14T16:19:45;4.10;99.90
20528;DHT22;23612;50.894;10.700;2023-03-14T16:22:10;4.10;99.90
20528;DHT22;23612;50.894;10.700;2023-03-14T16:24:36;4.10;99.90